Prattville, Alabama
Current Conditions -  °F | °C
As of 2:55 AM on Sunday 23 Nov 2014 (Local Time) from K1A9 Reporting Station
Overcast Overcast  
Wind Chill: 56°   Ceiling: 600
Heat Index: 56°   Visibility: 10mi
Dew Point: 55°   Wind: 8mph
Humidity: 96%   Direction: 90°E
Pressure: 29.95"   Gusts: NA
Location:  32.46°N, 86.45°W
Report Text: K1A9 230855Z AUTO 09007KT 10SM OVC006 13/13 A2995 RMK AO2 60001 T01320126
Loading
Personal Weather Stations






























Interactive Weather Map New forecast layout! Learn more

10-Day Weather Forecast

Advertisements
Track Severe Weather on mobile